Meadow Vista, California
Current Conditions -  °F | °C
As of 7:55 PM on Wednesday 28 Jan 2015 (Local Time) from KAUN Reporting Station
Clear Clear  
Wind Chill: 52°   Ceiling: Unl
Heat Index: 52°   Visibility: 10mi
Dew Point: 41°   Wind: 5mph
Humidity: 67%   Direction: 90°E
Pressure: 30.18"   Gusts: NA
Location:  39°N, 121.03°W
Report Text: KAUN 290355Z AUTO 09004KT 10SM CLR 11/05 A3018 RMK AO1
Loading
Personal Weather Stations






























Interactive Weather Map New forecast layout! Learn more

10-Day Weather Forecast

Advertisements
Track Severe Weather on mobile